sensor_id;sensor_type;location;lat;lon;timestamp;P1;durP1;ratioP1;P2;durP2;ratioP2
39958;SDS011;25639;53.634;9.880;2023-07-29T00:02:18;4.45;;;3.63;;
39958;SDS011;25639;53.634;9.880;2023-07-29T00:04:44;5.35;;;4.10;;
39958;SDS011;25639;53.634;9.880;2023-07-29T00:07:09;6.70;;;4.15;;
39958;SDS011;25639;53.634;9.880;2023-07-29T00:09:34;5.97;;;3.97;;
39958;SDS011;25639;53.634;9.880;2023-07-29T00:11:59;4.47;;;3.45;;
39958;SDS011;25639;53.634;9.880;2023-07-29T00:14:25;4.75;;;3.70;;
39958;SDS011;25639;53.634;9.880;2023-07-29T00:16:50;4.68;;;3.67;;
39958;SDS011;25639;53.634;9.880;2023-07-29T00:19:15;4.07;;;3.67;;
39958;SDS011;25639;53.634;9.880;2023-07-29T00:21:40;4.22;;;3.58;;
39958;SDS011;25639;53.634;9.880;2023-07-29T00:24:06;4.53;;;3.75;;
39958;SDS011;25639;53.634;9.880;2023-07-29T00:26:31;5.78;;;4.15;;
39958;SDS011;25639;53.634;9.880;2023-07-29T00:28:57;4.78;;;3.85;;
39958;SDS011;25639;53.634;9.880;2023-07-29T00:31:23;6.82;;;3.75;;
39958;SDS011;25639;53.634;9.880;2023-07-29T00:33:48;8.75;;;4.80;;
39958;SDS011;25639;53.634;9.880;2023-07-29T00:36:17;5.93;;;4.60;;
39958;SDS011;25639;53.634;9.880;2023-07-29T00:38:43;4.78;;;3.70;;
39958;SDS011;25639;53.634;9.880;2023-07-29T00:41:08;6.63;;;3.78;;
39958;SDS011;25639;53.634;9.880;2023-07-29T00:43:38;7.95;;;4.20;;
39958;SDS011;25639;53.634;9.880;2023-07-29T00:46:03;6.65;;;4.13;;
39958;SDS011;25639;53.634;9.880;2023-07-29T00:48:29;6.88;;;4.85;;
39958;SDS011;25639;53.634;9.880;2023-07-29T00:50:57;6.35;;;4.53;;
39958;SDS011;25639;53.634;9.880;2023-07-29T00:53:23;5.38;;;4.38;;
39958;SDS011;25639;53.634;9.880;2023-07-29T00:55:48;5.00;;;4.25;;
39958;SDS011;25639;53.634;9.880;2023-07-29T00:58:14;8.00;;;4.88;;
39958;SDS011;25639;53.634;9.880;2023-07-29T01:00:39;5.53;;;4.03;;
39958;SDS011;25639;53.634;9.880;2023-07-29T01:03:05;4.72;;;3.97;;
39958;SDS011;25639;53.634;9.880;2023-07-29T01:05:36;5.47;;;4.53;;
39958;SDS011;25639;53.634;9.880;2023-07-29T01:08:16;7.45;;;4.88;;
39958;SDS011;25639;53.634;9.880;2023-07-29T01:10:58;5.80;;;4.60;;
39958;SDS011;25639;53.634;9.880;2023-07-29T01:13:36;6.25;;;4.57;;
39958;SDS011;25639;53.634;9.880;2023-07-29T01:19:08;5.07;;;4.53;;
39958;SDS011;25639;53.634;9.880;2023-07-29T01:22:02;5.63;;;4.20;;
39958;SDS011;25639;53.634;9.880;2023-07-29T01:24:28;6.57;;;4.90;;
39958;SDS011;25639;53.634;9.880;2023-07-29T01:26:53;5.00;;;4.07;;
39958;SDS011;25639;53.634;9.880;2023-07-29T01:29:18;6.47;;;4.40;;
39958;SDS011;25639;53.634;9.880;2023-07-29T01:31:44;5.50;;;4.22;;
39958;SDS011;25639;53.634;9.880;2023-07-29T01:34:19;8.15;;;4.32;;
39958;SDS011;25639;53.634;9.880;2023-07-29T01:36:51;6.88;;;5.15;;
39958;SDS011;25639;53.634;9.880;2023-07-29T01:39:19;5.97;;;4.57;;
39958;SDS011;25639;53.634;9.880;2023-07-29T01:41:47;7.40;;;4.13;;
39958;SDS011;25639;53.634;9.880;2023-07-29T01:44:13;5.55;;;4.22;;
39958;SDS011;25639;53.634;9.880;2023-07-29T01:46:39;6.65;;;4.40;;
39958;SDS011;25639;53.634;9.880;2023-07-29T01:49:04;9.45;;;4.50;;
39958;SDS011;25639;53.634;9.880;2023-07-29T01:51:30;8.45;;;4.78;;
39958;SDS011;25639;53.634;9.880;2023-07-29T01:53:55;7.75;;;5.20;;
39958;SDS011;25639;53.634;9.880;2023-07-29T01:56:20;7.03;;;5.53;;
39958;SDS011;25639;53.634;9.880;2023-07-29T01:58:46;9.63;;;5.80;;
39958;SDS011;25639;53.634;9.880;2023-07-29T02:01:11;11.65;;;6.45;;
39958;SDS011;25639;53.634;9.880;2023-07-29T02:03:40;7.03;;;5.28;;
39958;SDS011;25639;53.634;9.880;2023-07-29T02:06:05;8.73;;;6.28;;
39958;SDS011;25639;53.634;9.880;2023-07-29T02:08:31;9.32;;;6.72;;
39958;SDS011;25639;53.634;9.880;2023-07-29T02:10:56;10.30;;;6.65;;
39958;SDS011;25639;53.634;9.880;2023-07-29T02:13:21;12.65;;;7.35;;
39958;SDS011;25639;53.634;9.880;2023-07-29T02:15:47;8.35;;;6.82;;
39958;SDS011;25639;53.634;9.880;2023-07-29T02:18:12;10.68;;;7.78;;
39958;SDS011;25639;53.634;9.880;2023-07-29T02:20:37;12.77;;;7.82;;
39958;SDS011;25639;53.634;9.880;2023-07-29T02:23:02;10.48;;;7.53;;
39958;SDS011;25639;53.634;9.880;2023-07-29T02:25:31;14.13;;;8.63;;
39958;SDS011;25639;53.634;9.880;2023-07-29T02:27:56;10.80;;;7.32;;
39958;SDS011;25639;53.634;9.880;2023-07-29T02:30:21;10.85;;;7.57;;
39958;SDS011;25639;53.634;9.880;2023-07-29T02:32:47;10.68;;;8.10;;
39958;SDS011;25639;53.634;9.880;2023-07-29T02:35:12;9.82;;;7.53;;
39958;SDS011;25639;53.634;9.880;2023-07-29T02:37:38;9.52;;;7.05;;
39958;SDS011;25639;53.634;9.880;2023-07-29T02:40:03;10.77;;;8.13;;
39958;SDS011;25639;53.634;9.880;2023-07-29T02:42:32;9.88;;;7.90;;
39958;SDS011;25639;53.634;9.880;2023-07-29T02:44:57;14.88;;;8.48;;
39958;SDS011;25639;53.634;9.880;2023-07-29T02:47:23;11.98;;;7.97;;
39958;SDS011;25639;53.634;9.880;2023-07-29T02:49:49;11.02;;;7.18;;
39958;SDS011;25639;53.634;9.880;2023-07-29T02:52:15;9.18;;;6.22;;
39958;SDS011;25639;53.634;9.880;2023-07-29T02:54:40;9.95;;;7.57;;
39958;SDS011;25639;53.634;9.880;2023-07-29T02:57:05;9.98;;;6.20;;
39958;SDS011;25639;53.634;9.880;2023-07-29T02:59:32;12.85;;;8.43;;
39958;SDS011;25639;53.634;9.880;2023-07-29T03:01:58;8.93;;;7.00;;
39958;SDS011;25639;53.634;9.880;2023-07-29T03:04:23;10.75;;;7.82;;
39958;SDS011;25639;53.634;9.880;2023-07-29T03:06:48;10.50;;;7.00;;
39958;SDS011;25639;53.634;9.880;2023-07-29T03:09:13;12.73;;;9.00;;
39958;SDS011;25639;53.634;9.880;2023-07-29T03:11:42;11.65;;;9.02;;
39958;SDS011;25639;53.634;9.880;2023-07-29T03:14:07;13.13;;;8.15;;
39958;SDS011;25639;53.634;9.880;2023-07-29T03:16:33;8.43;;;7.10;;
39958;SDS011;25639;53.634;9.880;2023-07-29T03:18:58;11.48;;;8.65;;
39958;SDS011;25639;53.634;9.880;2023-07-29T03:21:25;14.57;;;9.55;;
39958;SDS011;25639;53.634;9.880;2023-07-29T03:23:50;11.95;;;8.60;;
39958;SDS011;25639;53.634;9.880;2023-07-29T03:26:15;15.98;;;11.77;;
39958;SDS011;25639;53.634;9.880;2023-07-29T03:28:41;16.77;;;10.82;;
39958;SDS011;25639;53.634;9.880;2023-07-29T03:31:07;15.48;;;11.98;;
39958;SDS011;25639;53.634;9.880;2023-07-29T03:33:33;13.60;;;10.00;;
39958;SDS011;25639;53.634;9.880;2023-07-29T03:35:59;13.20;;;9.18;;
39958;SDS011;25639;53.634;9.880;2023-07-29T03:38:24;12.13;;;9.38;;
39958;SDS011;25639;53.634;9.880;2023-07-29T03:40:50;15.68;;;11.88;;
39958;SDS011;25639;53.634;9.880;2023-07-29T03:43:15;13.93;;;9.82;;
39958;SDS011;25639;53.634;9.880;2023-07-29T03:45:40;13.68;;;10.50;;
39958;SDS011;25639;53.634;9.880;2023-07-29T03:48:06;12.57;;;10.00;;
39958;SDS011;25639;53.634;9.880;2023-07-29T03:50:33;14.88;;;11.10;;
39958;SDS011;25639;53.634;9.880;2023-07-29T03:53:00;16.17;;;11.52;;
39958;SDS011;25639;53.634;9.880;2023-07-29T03:55:26;18.42;;;12.15;;
39958;SDS011;25639;53.634;9.880;2023-07-29T03:57:51;18.17;;;12.77;;
39958;SDS011;25639;53.634;9.880;2023-07-29T04:00:16;17.98;;;13.32;;
39958;SDS011;25639;53.634;9.880;2023-07-29T04:02:42;17.92;;;13.32;;
39958;SDS011;25639;53.634;9.880;2023-07-29T04:05:07;22.48;;;15.18;;
39958;SDS011;25639;53.634;9.880;2023-07-29T04:07:33;23.23;;;14.80;;
39958;SDS011;25639;53.634;9.880;2023-07-29T04:09:59;23.83;;;15.13;;
39958;SDS011;25639;53.634;9.880;2023-07-29T04:12:25;25.90;;;17.60;;
39958;SDS011;25639;53.634;9.880;2023-07-29T04:14:51;33.65;;;21.63;;
39958;SDS011;25639;53.634;9.880;2023-07-29T04:17:16;33.70;;;19.92;;
39958;SDS011;25639;53.634;9.880;2023-07-29T04:19:41;37.15;;;21.17;;
39958;SDS011;25639;53.634;9.880;2023-07-29T04:22:07;32.45;;;20.27;;
39958;SDS011;25639;53.634;9.880;2023-07-29T04:24:32;36.85;;;22.65;;
39958;SDS011;25639;53.634;9.880;2023-07-29T04:26:57;44.42;;;25.58;;
39958;SDS011;25639;53.634;9.880;2023-07-29T04:29:23;48.97;;;27.83;;
39958;SDS011;25639;53.634;9.880;2023-07-29T04:31:49;50.80;;;28.17;;
39958;SDS011;25639;53.634;9.880;2023-07-29T04:34:15;46.33;;;28.00;;
39958;SDS011;25639;53.634;9.880;2023-07-29T04:36:40;55.45;;;30.00;;
39958;SDS011;25639;53.634;9.880;2023-07-29T04:39:05;47.00;;;27.23;;
39958;SDS011;25639;53.634;9.880;2023-07-29T04:41:31;55.42;;;29.98;;
39958;SDS011;25639;53.634;9.880;2023-07-29T04:43:56;52.58;;;27.63;;
39958;SDS011;25639;53.634;9.880;2023-07-29T04:46:21;54.58;;;29.50;;
39958;SDS011;25639;53.634;9.880;2023-07-29T04:48:47;52.95;;;29.17;;
39958;SDS011;25639;53.634;9.880;2023-07-29T04:51:12;59.33;;;31.60;;
39958;SDS011;25639;53.634;9.880;2023-07-29T04:53:37;55.45;;;29.23;;
39958;SDS011;25639;53.634;9.880;2023-07-29T04:56:03;56.45;;;30.77;;
39958;SDS011;25639;53.634;9.880;2023-07-29T04:58:28;55.88;;;27.92;;
39958;SDS011;25639;53.634;9.880;2023-07-29T05:00:55;61.05;;;30.40;;
39958;SDS011;25639;53.634;9.880;2023-07-29T05:03:20;57.13;;;30.65;;
39958;SDS011;25639;53.634;9.880;2023-07-29T05:05:46;51.67;;;28.08;;
39958;SDS011;25639;53.634;9.880;2023-07-29T05:08:11;52.22;;;28.45;;
39958;SDS011;25639;53.634;9.880;2023-07-29T05:10:36;52.47;;;29.60;;
39958;SDS011;25639;53.634;9.880;2023-07-29T05:13:02;59.47;;;28.83;;
39958;SDS011;25639;53.634;9.880;2023-07-29T05:15:27;53.33;;;30.30;;
39958;SDS011;25639;53.634;9.880;2023-07-29T05:17:52;63.50;;;33.45;;
39958;SDS011;25639;53.634;9.880;2023-07-29T05:20:18;62.20;;;32.03;;
39958;SDS011;25639;53.634;9.880;2023-07-29T05:22:43;54.75;;;31.83;;
39958;SDS011;25639;53.634;9.880;2023-07-29T05:25:09;53.17;;;29.85;;
39958;SDS011;25639;53.634;9.880;2023-07-29T05:27:34;61.42;;;34.58;;
39958;SDS011;25639;53.634;9.880;2023-07-29T05:29:59;56.42;;;33.38;;
39958;SDS011;25639;53.634;9.880;2023-07-29T05:32:28;59.55;;;32.78;;
39958;SDS011;25639;53.634;9.880;2023-07-29T05:34:54;56.70;;;33.17;;
39958;SDS011;25639;53.634;9.880;2023-07-29T05:37:20;49.25;;;30.33;;
39958;SDS011;25639;53.634;9.880;2023-07-29T05:39:45;43.03;;;28.35;;
39958;SDS011;25639;53.634;9.880;2023-07-29T05:42:14;50.92;;;31.38;;
39958;SDS011;25639;53.634;9.880;2023-07-29T05:44:39;35.97;;;25.42;;
39958;SDS011;25639;53.634;9.880;2023-07-29T05:47:04;39.47;;;25.67;;
39958;SDS011;25639;53.634;9.880;2023-07-29T05:49:33;36.80;;;24.25;;
39958;SDS011;25639;53.634;9.880;2023-07-29T05:51:58;36.65;;;22.90;;
39958;SDS011;25639;53.634;9.880;2023-07-29T05:54:27;30.63;;;20.65;;
39958;SDS011;25639;53.634;9.880;2023-07-29T05:56:52;37.58;;;23.05;;
39958;SDS011;25639;53.634;9.880;2023-07-29T05:59:17;36.17;;;23.85;;
39958;SDS011;25639;53.634;9.880;2023-07-29T06:01:42;41.10;;;24.95;;
39958;SDS011;25639;53.634;9.880;2023-07-29T06:04:08;32.67;;;21.98;;
39958;SDS011;25639;53.634;9.880;2023-07-29T06:06:33;36.75;;;24.88;;
39958;SDS011;25639;53.634;9.880;2023-07-29T06:08:58;33.33;;;24.08;;
39958;SDS011;25639;53.634;9.880;2023-07-29T06:11:24;39.30;;;26.23;;
39958;SDS011;25639;53.634;9.880;2023-07-29T06:13:49;38.42;;;25.33;;
39958;SDS011;25639;53.634;9.880;2023-07-29T06:16:15;38.63;;;25.33;;
39958;SDS011;25639;53.634;9.880;2023-07-29T06:18:52;40.97;;;26.15;;
39958;SDS011;25639;53.634;9.880;2023-07-29T06:21:17;33.92;;;23.63;;
39958;SDS011;25639;53.634;9.880;2023-07-29T06:23:44;34.05;;;23.02;;
39958;SDS011;25639;53.634;9.880;2023-07-29T06:26:10;32.70;;;23.77;;
39958;SDS011;25639;53.634;9.880;2023-07-29T06:28:35;36.10;;;23.73;;
39958;SDS011;25639;53.634;9.880;2023-07-29T06:31:00;34.03;;;23.08;;
39958;SDS011;25639;53.634;9.880;2023-07-29T06:33:26;34.20;;;23.65;;
39958;SDS011;25639;53.634;9.880;2023-07-29T06:35:51;35.83;;;22.42;;
39958;SDS011;25639;53.634;9.880;2023-07-29T06:38:16;33.83;;;21.83;;
39958;SDS011;25639;53.634;9.880;2023-07-29T06:40:47;36.88;;;23.05;;
39958;SDS011;25639;53.634;9.880;2023-07-29T06:43:13;38.53;;;23.63;;
39958;SDS011;25639;53.634;9.880;2023-07-29T06:45:39;35.05;;;23.70;;
39958;SDS011;25639;53.634;9.880;2023-07-29T06:48:04;34.72;;;23.52;;
39958;SDS011;25639;53.634;9.880;2023-07-29T06:50:29;35.72;;;23.65;;
39958;SDS011;25639;53.634;9.880;2023-07-29T06:52:55;31.02;;;20.42;;
39958;SDS011;25639;53.634;9.880;2023-07-29T06:55:23;35.63;;;22.60;;
39958;SDS011;25639;53.634;9.880;2023-07-29T06:57:48;35.22;;;23.45;;
39958;SDS011;25639;53.634;9.880;2023-07-29T07:00:14;28.98;;;21.58;;
39958;SDS011;25639;53.634;9.880;2023-07-29T07:02:39;34.60;;;22.33;;
39958;SDS011;25639;53.634;9.880;2023-07-29T07:05:05;31.33;;;23.65;;
39958;SDS011;25639;53.634;9.880;2023-07-29T07:07:30;35.22;;;24.27;;
39958;SDS011;25639;53.634;9.880;2023-07-29T07:09:56;34.80;;;23.48;;
39958;SDS011;25639;53.634;9.880;2023-07-29T07:12:21;39.08;;;23.35;;
39958;SDS011;25639;53.634;9.880;2023-07-29T07:14:47;32.20;;;22.42;;
39958;SDS011;25639;53.634;9.880;2023-07-29T07:17:12;36.10;;;23.55;;
39958;SDS011;25639;53.634;9.880;2023-07-29T07:19:38;35.80;;;24.85;;
39958;SDS011;25639;53.634;9.880;2023-07-29T07:22:03;38.03;;;24.15;;
39958;SDS011;25639;53.634;9.880;2023-07-29T07:24:29;38.53;;;24.55;;
39958;SDS011;25639;53.634;9.880;2023-07-29T07:26:54;39.80;;;24.80;;
39958;SDS011;25639;53.634;9.880;2023-07-29T07:29:19;37.92;;;24.77;;
39958;SDS011;25639;53.634;9.880;2023-07-29T07:31:49;38.38;;;24.42;;
39958;SDS011;25639;53.634;9.880;2023-07-29T07:34:22;34.42;;;24.17;;
39958;SDS011;25639;53.634;9.880;2023-07-29T07:36:48;34.67;;;24.75;;
39958;SDS011;25639;53.634;9.880;2023-07-29T07:39:14;34.67;;;23.85;;
39958;SDS011;25639;53.634;9.880;2023-07-29T07:41:42;30.38;;;22.25;;
39958;SDS011;25639;53.634;9.880;2023-07-29T07:44:08;35.88;;;22.77;;
39958;SDS011;25639;53.634;9.880;2023-07-29T07:46:34;34.42;;;22.77;;
39958;SDS011;25639;53.634;9.880;2023-07-29T07:49:05;39.58;;;23.88;;
39958;SDS011;25639;53.634;9.880;2023-07-29T07:51:36;32.65;;;22.60;;
39958;SDS011;25639;53.634;9.880;2023-07-29T07:54:01;28.38;;;20.58;;
39958;SDS011;25639;53.634;9.880;2023-07-29T07:56:26;31.17;;;20.33;;
39958;SDS011;25639;53.634;9.880;2023-07-29T08:02:02;29.75;;;20.42;;
39958;SDS011;25639;53.634;9.880;2023-07-29T08:04:28;29.75;;;20.70;;
39958;SDS011;25639;53.634;9.880;2023-07-29T08:06:53;29.67;;;21.40;;
39958;SDS011;25639;53.634;9.880;2023-07-29T08:09:18;34.92;;;21.17;;
39958;SDS011;25639;53.634;9.880;2023-07-29T08:11:44;30.92;;;19.48;;
39958;SDS011;25639;53.634;9.880;2023-07-29T08:14:09;35.40;;;20.10;;
39958;SDS011;25639;53.634;9.880;2023-07-29T08:16:34;29.73;;;20.02;;
39958;SDS011;25639;53.634;9.880;2023-07-29T08:18:59;25.88;;;18.33;;
39958;SDS011;25639;53.634;9.880;2023-07-29T08:21:26;27.85;;;18.63;;
39958;SDS011;25639;53.634;9.880;2023-07-29T08:23:52;28.73;;;18.40;;
39958;SDS011;25639;53.634;9.880;2023-07-29T08:26:17;30.02;;;19.67;;
39958;SDS011;25639;53.634;9.880;2023-07-29T08:28:42;32.28;;;20.15;;
39958;SDS011;25639;53.634;9.880;2023-07-29T08:31:07;30.77;;;19.42;;
39958;SDS011;25639;53.634;9.880;2023-07-29T08:33:33;25.83;;;17.77;;
39958;SDS011;25639;53.634;9.880;2023-07-29T08:35:59;38.17;;;22.02;;
39958;SDS011;25639;53.634;9.880;2023-07-29T08:38:24;40.03;;;23.55;;
39958;SDS011;25639;53.634;9.880;2023-07-29T08:41:10;31.25;;;21.45;;
39958;SDS011;25639;53.634;9.880;2023-07-29T08:43:38;34.38;;;21.20;;
39958;SDS011;25639;53.634;9.880;2023-07-29T08:46:11;37.47;;;23.80;;
39958;SDS011;25639;53.634;9.880;2023-07-29T08:48:40;38.22;;;23.50;;
39958;SDS011;25639;53.634;9.880;2023-07-29T08:51:10;41.85;;;24.10;;
39958;SDS011;25639;53.634;9.880;2023-07-29T08:53:37;38.22;;;24.10;;
39958;SDS011;25639;53.634;9.880;2023-07-29T08:56:03;35.30;;;22.73;;
39958;SDS011;25639;53.634;9.880;2023-07-29T08:58:30;34.25;;;22.92;;
39958;SDS011;25639;53.634;9.880;2023-07-29T09:00:59;37.65;;;23.75;;
39958;SDS011;25639;53.634;9.880;2023-07-29T09:03:25;35.30;;;23.17;;
39958;SDS011;25639;53.634;9.880;2023-07-29T09:05:51;33.70;;;21.13;;
39958;SDS011;25639;53.634;9.880;2023-07-29T09:08:17;30.10;;;21.25;;
39958;SDS011;25639;53.634;9.880;2023-07-29T09:10:43;29.55;;;20.38;;
39958;SDS011;25639;53.634;9.880;2023-07-29T09:13:08;27.95;;;20.10;;
39958;SDS011;25639;53.634;9.880;2023-07-29T09:15:34;30.75;;;20.25;;
39958;SDS011;25639;53.634;9.880;2023-07-29T09:18:10;29.88;;;20.08;;
39958;SDS011;25639;53.634;9.880;2023-07-29T09:20:37;29.00;;;20.08;;
39958;SDS011;25639;53.634;9.880;2023-07-29T09:23:03;28.30;;;19.05;;
39958;SDS011;25639;53.634;9.880;2023-07-29T09:25:31;28.10;;;18.23;;
39958;SDS011;25639;53.634;9.880;2023-07-29T09:28:00;24.25;;;16.40;;
39958;SDS011;25639;53.634;9.880;2023-07-29T09:33:18;28.77;;;19.23;;
39958;SDS011;25639;53.634;9.880;2023-07-29T09:35:44;27.23;;;16.67;;
39958;SDS011;25639;53.634;9.880;2023-07-29T09:38:14;27.05;;;17.60;;
39958;SDS011;25639;53.634;9.880;2023-07-29T09:40:42;18.45;;;14.15;;
39958;SDS011;25639;53.634;9.880;2023-07-29T09:43:10;19.02;;;12.85;;
39958;SDS011;25639;53.634;9.880;2023-07-29T09:45:35;17.75;;;11.85;;
39958;SDS011;25639;53.634;9.880;2023-07-29T09:48:02;15.85;;;11.43;;
39958;SDS011;25639;53.634;9.880;2023-07-29T09:50:30;15.52;;;10.82;;
39958;SDS011;25639;53.634;9.880;2023-07-29T09:52:56;15.25;;;10.38;;
39958;SDS011;25639;53.634;9.880;2023-07-29T09:55:25;14.48;;;9.63;;
39958;SDS011;25639;53.634;9.880;2023-07-29T09:57:57;12.50;;;9.32;;
39958;SDS011;25639;53.634;9.880;2023-07-29T10:00:25;11.70;;;8.30;;
39958;SDS011;25639;53.634;9.880;2023-07-29T10:02:51;12.75;;;8.75;;
39958;SDS011;25639;53.634;9.880;2023-07-29T10:05:17;9.48;;;7.10;;
39958;SDS011;25639;53.634;9.880;2023-07-29T10:07:42;10.60;;;6.97;;
39958;SDS011;25639;53.634;9.880;2023-07-29T10:10:09;12.15;;;7.20;;
39958;SDS011;25639;53.634;9.880;2023-07-29T10:12:35;8.30;;;6.22;;
39958;SDS011;25639;53.634;9.880;2023-07-29T10:15:01;7.15;;;5.85;;
39958;SDS011;25639;53.634;9.880;2023-07-29T10:17:29;7.72;;;6.25;;
39958;SDS011;25639;53.634;9.880;2023-07-29T10:19:55;10.98;;;6.40;;
39958;SDS011;25639;53.634;9.880;2023-07-29T10:22:22;7.43;;;5.30;;
39958;SDS011;25639;53.634;9.880;2023-07-29T10:24:53;6.78;;;5.55;;
39958;SDS011;25639;53.634;9.880;2023-07-29T10:27:21;6.00;;;4.57;;
39958;SDS011;25639;53.634;9.880;2023-07-29T10:29:49;5.78;;;4.18;;
39958;SDS011;25639;53.634;9.880;2023-07-29T10:32:15;4.57;;;4.15;;
39958;SDS011;25639;53.634;9.880;2023-07-29T10:34:40;4.93;;;4.43;;
39958;SDS011;25639;53.634;9.880;2023-07-29T10:37:07;7.97;;;3.97;;
39958;SDS011;25639;53.634;9.880;2023-07-29T10:39:39;5.95;;;4.30;;
39958;SDS011;25639;53.634;9.880;2023-07-29T10:42:06;3.72;;;2.90;;
39958;SDS011;25639;53.634;9.880;2023-07-29T10:47:24;6.00;;;3.15;;
39958;SDS011;25639;53.634;9.880;2023-07-29T10:49:58;5.68;;;3.40;;
39958;SDS011;25639;53.634;9.880;2023-07-29T10:52:31;4.25;;;2.85;;
39958;SDS011;25639;53.634;9.880;2023-07-29T10:55:10;3.20;;;2.90;;
39958;SDS011;25639;53.634;9.880;2023-07-29T10:57:50;3.72;;;3.08;;
39958;SDS011;25639;53.634;9.880;2023-07-29T11:00:15;4.28;;;2.83;;
39958;SDS011;25639;53.634;9.880;2023-07-29T11:02:40;4.18;;;2.70;;
39958;SDS011;25639;53.634;9.880;2023-07-29T11:05:06;3.88;;;2.53;;
39958;SDS011;25639;53.634;9.880;2023-07-29T11:07:43;3.17;;;2.28;;
39958;SDS011;25639;53.634;9.880;2023-07-29T11:10:13;4.40;;;2.10;;
39958;SDS011;25639;53.634;9.880;2023-07-29T11:17:36;6.43;;;3.07;;
39958;SDS011;25639;53.634;9.880;2023-07-29T11:20:04;2.83;;;2.40;;
39958;SDS011;25639;53.634;9.880;2023-07-29T11:22:30;4.47;;;2.78;;
39958;SDS011;25639;53.634;9.880;2023-07-29T11:24:55;3.92;;;2.90;;
39958;SDS011;25639;53.634;9.880;2023-07-29T11:27:21;6.97;;;3.80;;
39958;SDS011;25639;53.634;9.880;2023-07-29T11:29:47;6.00;;;3.58;;
39958;SDS011;25639;53.634;9.880;2023-07-29T11:32:12;4.32;;;3.60;;
39958;SDS011;25639;53.634;9.880;2023-07-29T11:34:38;6.35;;;3.70;;
39958;SDS011;25639;53.634;9.880;2023-07-29T11:37:05;6.65;;;3.80;;
39958;SDS011;25639;53.634;9.880;2023-07-29T11:39:31;5.35;;;3.80;;
39958;SDS011;25639;53.634;9.880;2023-07-29T11:41:57;5.70;;;3.90;;
39958;SDS011;25639;53.634;9.880;2023-07-29T11:44:22;4.80;;;3.75;;
39958;SDS011;25639;53.634;9.880;2023-07-29T11:46:48;4.30;;;3.60;;
39958;SDS011;25639;53.634;9.880;2023-07-29T11:49:13;5.57;;;3.50;;
39958;SDS011;25639;53.634;9.880;2023-07-29T11:51:39;5.75;;;3.20;;
39958;SDS011;25639;53.634;9.880;2023-07-29T11:54:06;4.25;;;3.30;;
39958;SDS011;25639;53.634;9.880;2023-07-29T11:56:32;4.82;;;3.30;;
39958;SDS011;25639;53.634;9.880;2023-07-29T11:58:57;3.78;;;2.90;;
39958;SDS011;25639;53.634;9.880;2023-07-29T12:01:23;4.30;;;3.10;;
39958;SDS011;25639;53.634;9.880;2023-07-29T12:03:48;3.40;;;3.00;;
39958;SDS011;25639;53.634;9.880;2023-07-29T12:06:15;3.88;;;2.83;;
39958;SDS011;25639;53.634;9.880;2023-07-29T12:08:41;4.22;;;2.80;;
39958;SDS011;25639;53.634;9.880;2023-07-29T12:11:08;3.20;;;2.50;;
39958;SDS011;25639;53.634;9.880;2023-07-29T12:13:35;7.85;;;2.83;;
39958;SDS011;25639;53.634;9.880;2023-07-29T12:16:02;2.88;;;2.22;;
39958;SDS011;25639;53.634;9.880;2023-07-29T12:18:31;4.65;;;2.28;;
39958;SDS011;25639;53.634;9.880;2023-07-29T12:20:57;4.70;;;3.05;;
39958;SDS011;25639;53.634;9.880;2023-07-29T12:23:26;6.72;;;3.10;;
39958;SDS011;25639;53.634;9.880;2023-07-29T12:25:56;3.53;;;2.80;;
39958;SDS011;25639;53.634;9.880;2023-07-29T12:28:22;3.33;;;2.30;;
39958;SDS011;25639;53.634;9.880;2023-07-29T12:30:48;2.30;;;2.03;;
39958;SDS011;25639;53.634;9.880;2023-07-29T12:33:31;2.80;;;2.00;;
39958;SDS011;25639;53.634;9.880;2023-07-29T12:36:07;2.10;;;1.80;;
39958;SDS011;25639;53.634;9.880;2023-07-29T12:38:32;73.00;;;16.92;;
39958;SDS011;25639;53.634;9.880;2023-07-29T12:40:58;4.28;;;2.00;;
39958;SDS011;25639;53.634;9.880;2023-07-29T12:43:24;2.65;;;1.83;;
39958;SDS011;25639;53.634;9.880;2023-07-29T12:45:50;3.25;;;1.90;;
39958;SDS011;25639;53.634;9.880;2023-07-29T12:48:15;4.28;;;1.77;;
39958;SDS011;25639;53.634;9.880;2023-07-29T12:50:41;2.30;;;1.63;;
39958;SDS011;25639;53.634;9.880;2023-07-29T12:53:06;4.05;;;1.77;;
39958;SDS011;25639;53.634;9.880;2023-07-29T12:55:32;1.80;;;1.70;;
39958;SDS011;25639;53.634;9.880;2023-07-29T12:57:58;4.63;;;1.77;;
39958;SDS011;25639;53.634;9.880;2023-07-29T13:00:24;2.65;;;1.88;;
39958;SDS011;25639;53.634;9.880;2023-07-29T13:02:49;2.00;;;1.60;;
39958;SDS011;25639;53.634;9.880;2023-07-29T13:05:14;2.70;;;1.85;;
39958;SDS011;25639;53.634;9.880;2023-07-29T13:07:40;3.05;;;1.60;;
39958;SDS011;25639;53.634;9.880;2023-07-29T13:10:06;3.03;;;2.03;;
39958;SDS011;25639;53.634;9.880;2023-07-29T13:12:32;2.90;;;2.00;;
39958;SDS011;25639;53.634;9.880;2023-07-29T13:14:57;2.22;;;1.77;;
39958;SDS011;25639;53.634;9.880;2023-07-29T13:17:22;2.35;;;1.80;;
39958;SDS011;25639;53.634;9.880;2023-07-29T13:19:48;3.25;;;1.80;;
39958;SDS011;25639;53.634;9.880;2023-07-29T13:22:13;4.15;;;2.03;;
39958;SDS011;25639;53.634;9.880;2023-07-29T13:24:39;2.97;;;2.05;;
39958;SDS011;25639;53.634;9.880;2023-07-29T13:27:04;3.60;;;1.90;;
39958;SDS011;25639;53.634;9.880;2023-07-29T13:29:30;3.75;;;1.90;;
39958;SDS011;25639;53.634;9.880;2023-07-29T13:31:55;2.93;;;1.70;;
39958;SDS011;25639;53.634;9.880;2023-07-29T13:34:20;2.22;;;2.00;;
39958;SDS011;25639;53.634;9.880;2023-07-29T13:36:45;2.47;;;1.83;;
39958;SDS011;25639;53.634;9.880;2023-07-29T13:39:11;5.38;;;1.95;;
39958;SDS011;25639;53.634;9.880;2023-07-29T13:41:36;2.22;;;1.73;;
39958;SDS011;25639;53.634;9.880;2023-07-29T13:44:01;4.15;;;1.58;;
39958;SDS011;25639;53.634;9.880;2023-07-29T13:46:27;3.22;;;1.77;;
39958;SDS011;25639;53.634;9.880;2023-07-29T13:48:52;4.28;;;2.08;;
39958;SDS011;25639;53.634;9.880;2023-07-29T13:51:17;6.43;;;1.98;;
39958;SDS011;25639;53.634;9.880;2023-07-29T13:53:42;1.95;;;1.52;;
39958;SDS011;25639;53.634;9.880;2023-07-29T13:56:08;2.53;;;1.77;;
39958;SDS011;25639;53.634;9.880;2023-07-29T13:58:33;2.95;;;2.03;;
39958;SDS011;25639;53.634;9.880;2023-07-29T14:00:58;4.03;;;1.70;;
39958;SDS011;25639;53.634;9.880;2023-07-29T14:03:24;2.30;;;2.00;;
39958;SDS011;25639;53.634;9.880;2023-07-29T14:05:49;2.60;;;1.90;;
39958;SDS011;25639;53.634;9.880;2023-07-29T14:08:14;2.72;;;2.10;;
39958;SDS011;25639;53.634;9.880;2023-07-29T14:10:39;4.07;;;2.10;;
39958;SDS011;25639;53.634;9.880;2023-07-29T14:13:05;2.92;;;1.63;;
39958;SDS011;25639;53.634;9.880;2023-07-29T14:15:30;5.00;;;1.70;;
39958;SDS011;25639;53.634;9.880;2023-07-29T14:17:57;5.00;;;1.88;;
39958;SDS011;25639;53.634;9.880;2023-07-29T14:20:22;3.40;;;1.65;;
39958;SDS011;25639;53.634;9.880;2023-07-29T14:22:48;2.35;;;1.50;;
39958;SDS011;25639;53.634;9.880;2023-07-29T14:25:14;5.80;;;1.65;;
39958;SDS011;25639;53.634;9.880;2023-07-29T14:27:39;2.13;;;1.73;;
39958;SDS011;25639;53.634;9.880;2023-07-29T14:30:05;1.48;;;1.35;;
39958;SDS011;25639;53.634;9.880;2023-07-29T14:32:31;4.30;;;1.80;;
39958;SDS011;25639;53.634;9.880;2023-07-29T14:34:56;3.05;;;1.60;;
39958;SDS011;25639;53.634;9.880;2023-07-29T14:37:21;2.65;;;1.95;;
39958;SDS011;25639;53.634;9.880;2023-07-29T14:39:46;2.03;;;1.80;;
39958;SDS011;25639;53.634;9.880;2023-07-29T14:42:12;2.47;;;1.60;;
39958;SDS011;25639;53.634;9.880;2023-07-29T14:44:39;3.40;;;1.90;;
39958;SDS011;25639;53.634;9.880;2023-07-29T14:47:05;3.60;;;1.73;;
39958;SDS011;25639;53.634;9.880;2023-07-29T14:49:33;2.63;;;1.50;;